Time;durP1;ratioP1;P1;durP2;ratioP2;P2;SDS_P1;SDS_P2;PMS_P1;PMS_P2;Temp;Humidity;BMP_temperature;BMP_pressure;BME280_temperature;BME280_humidity;BME280_pressure;Samples;Min_cycle;Max_cycle;Signal;HPM_P1;HPM_P2
2022/06/18 00:01:36;;;;;;;6.43;3.38;;;;;;;19.09;53.56;101029.78;5032579;28;20037;-68
2022/06/18 00:04:09;;;;;;;7.70;3.10;;;;;;;19.09;53.24;101024.47;5032934;28;20029;-68
2022/06/18 00:07:00;;;;;;;4.53;3.00;;;;;;;19.09;53.61;101030.66;5033212;28;20044;-68
2022/06/18 00:09:35;;;;;;;3.78;2.53;;;;;;;19.09;53.25;101021.78;5042789;28;20128;-68
2022/06/18 00:14:56;;;;;;;4.97;2.80;;;;;;;19.04;53.13;101023.81;5033005;28;20040;-68
2022/06/18 00:17:22;;;;;;;5.38;3.25;;;;;;;19.04;53.16;101026.47;5032642;28;20125;-68
2022/06/18 00:19:49;;;;;;;4.25;2.72;;;;;;;19.05;53.34;101028.19;5033070;28;20041;-68
2022/06/18 00:22:18;;;;;;;4.55;2.92;;;;;;;19.10;53.15;101020.84;5032828;28;20111;-68
2022/06/18 00:24:44;;;;;;;3.58;2.63;;;;;;;19.10;53.41;101020.84;5032627;28;20041;-68
2022/06/18 00:27:16;;;;;;;4.38;2.67;;;;;;;19.06;53.42;101020.13;5032524;28;20412;-68
2022/06/18 00:29:41;;;;;;;7.07;2.97;;;;;;;19.07;53.39;101020.97;5032384;28;20444;-68
2022/06/18 00:32:08;;;;;;;4.47;2.75;;;;;;;19.05;53.45;101018.41;5032321;28;20041;-68
2022/06/18 00:34:34;;;;;;;3.92;2.40;;;;;;;19.02;53.36;101017.69;5032396;28;20033;-68
2022/06/18 00:36:59;;;;;;;4.15;2.92;;;;;;;19.00;53.45;101016.91;5032452;28;20071;-68
2022/06/18 00:39:28;;;;;;;5.57;3.85;;;;;;;18.94;53.78;101016.22;5032197;28;20043;-67
2022/06/18 00:42:05;;;;;;;6.40;4.07;;;;;;;18.98;53.57;101016.97;5015191;28;20034;-68
2022/06/18 00:44:37;;;;;;;6.80;4.20;;;;;;;19.00;53.63;101016.91;5032428;28;20030;-68
2022/06/18 00:47:06;;;;;;;;;;;;;;;18.91;54.33;101015.50;5027513;28;20453;-68
2022/06/18 00:49:45;;;;;;;9.32;5.75;;;;;;;18.81;54.30;101008.91;5036355;28;19913;-68
2022/06/18 00:52:43;;;;;;;8.07;5.32;;;;;;;18.76;54.79;101017.09;5036146;28;20037;-68
2022/06/18 00:55:20;;;;;;;8.10;5.38;;;;;;;18.66;54.64;101015.75;5016562;28;20037;-68
2022/06/18 00:58:08;;;;;;;6.97;5.43;;;;;;;18.61;54.94;101018.63;5018583;28;20044;-68
2022/06/18 01:00:41;;;;;;;8.15;5.95;;;;;;;18.64;54.67;101014.97;5036031;28;20044;-67
2022/06/18 01:03:22;;;;;;;7.68;5.88;;;;;;;18.63;55.17;100998.13;5036023;28;20128;-68
2022/06/18 01:05:47;;;;;;;8.57;5.93;;;;;;;18.73;54.49;101013.72;5036132;28;20034;-68
2022/06/18 01:08:17;;;;;;;9.77;6.93;;;;;;;18.82;54.36;101006.16;5036263;28;20542;-68
2022/06/18 01:10:49;;;;;;;8.60;6.15;;;;;;;18.93;54.14;101001.19;5035763;28;20469;-68
2022/06/18 01:13:18;;;;;;;12.13;6.32;;;;;;;19.01;53.81;100997.31;5036222;28;20041;-68
2022/06/18 01:15:45;;;;;;;10.20;7.15;;;;;;;18.98;54.06;100994.78;5035877;28;20454;-68
2022/06/18 01:18:12;;;;;;;8.80;6.70;;;;;;;18.89;54.22;100996.09;5017907;28;20033;-67
2022/06/18 01:20:59;;;;;;;10.82;6.97;;;;;;;18.85;54.84;100986.53;5035770;28;20071;-68
2022/06/18 01:23:55;;;;;;;10.88;6.65;;;;;;;18.82;55.07;100978.66;5035538;28;20083;-68
2022/06/18 01:26:21;;;;;;;9.05;6.78;;;;;;;18.83;54.40;100975.06;5035391;28;20484;-67
2022/06/18 01:28:47;;;;;;;8.63;5.90;;;;;;;18.87;54.25;100982.88;5035622;28;20033;-68
2022/06/18 01:31:12;;;;;;;7.75;5.78;;;;;;;18.83;54.48;100977.72;5017850;28;20029;-68
2022/06/18 01:33:39;;;;;;;8.15;6.07;;;;;;;18.70;54.75;100983.63;5035382;28;20112;-68
2022/06/18 01:36:08;;;;;;;8.35;5.88;;;;;;;18.68;55.26;100981.94;5036284;28;20120;-68
2022/06/18 01:38:38;;;;;;;7.40;5.85;;;;;;;18.64;55.09;100983.03;5035750;28;20041;-67
2022/06/18 01:44:12;;;;;;;6.28;4.95;;;;;;;18.64;55.16;100972.38;5029645;28;20040;-68
2022/06/18 01:46:42;;;;;;;7.75;5.32;;;;;;;18.69;55.22;100970.34;5035099;28;20029;-68
2022/06/18 01:49:12;;;;;;;8.20;5.75;;;;;;;18.75;55.04;100974.56;5035605;28;20051;-68
2022/06/18 01:51:47;;;;;;;7.22;5.35;;;;;;;18.63;55.56;100967.97;5017279;28;20056;-68
2022/06/18 01:54:20;;;;;;;7.85;5.10;;;;;;;18.64;55.45;100959.06;5016278;28;20036;-68
2022/06/18 01:56:54;;;;;;;7.10;4.78;;;;;;;18.63;55.72;100962.63;5033941;28;20495;-68
2022/06/18 01:59:25;;;;;;;6.15;4.57;;;;;;;18.59;55.52;100966.38;5016120;28;20136;-67
2022/06/18 02:01:51;;;;;;;7.07;5.00;;;;;;;18.50;55.77;100957.03;5016432;28;20536;-66
2022/06/18 02:04:19;;;;;;;5.32;4.32;;;;;;;18.55;55.76;100955.03;5029176;28;20477;-68
2022/06/18 02:06:46;;;;;;;5.25;4.45;;;;;;;18.66;55.61;100951.88;5033981;28;20443;-68
2022/06/18 02:09:25;;;;;;;5.88;4.10;;;;;;;18.80;55.76;100953.94;5016216;28;20032;-68
2022/06/18 02:11:52;;;;;;;6.70;4.13;;;;;;;18.89;54.96;100954.34;5033994;28;20033;-68
2022/06/18 02:14:19;;;;;;;6.70;4.68;;;;;;;18.95;54.87;100948.75;5033819;28;20029;-69
2022/06/18 02:16:46;;;;;;;7.00;4.22;;;;;;;18.99;54.73;100945.91;5015901;28;20026;-68
2022/06/18 02:19:14;;;;;;;6.60;4.75;;;;;;;19.00;54.72;100939.69;4980107;28;20481;-68
2022/06/18 02:21:45;;;;;;;6.53;4.63;;;;;;;19.01;54.66;100933.41;5014882;28;20045;-68
2022/06/18 02:24:11;;;;;;;5.77;4.17;;;;;;;19.02;54.65;100936.00;5033940;28;20469;-68
2022/06/18 02:26:40;;;;;;;5.65;3.88;;;;;;;19.06;54.51;100928.72;5016042;28;20038;-68
2022/06/18 02:29:16;;;;;;;5.13;4.20;;;;;;;19.09;54.54;100925.91;5033037;28;20036;-68
2022/06/18 02:31:45;;;;;;;4.50;3.55;;;;;;;19.11;54.47;100921.34;5015633;28;20087;-68
2022/06/18 02:34:15;;;;;;;5.32;3.83;;;;;;;19.09;54.54;100924.09;5033501;28;20112;-68
2022/06/18 02:36:43;;;;;;;5.68;4.20;;;;;;;19.07;54.57;100917.13;5016402;28;20071;-68
2022/06/18 02:39:27;;;;;;;5.72;3.85;;;;;;;19.05;55.16;100917.22;5033616;28;20033;-68
2022/06/18 02:42:03;;;;;;;6.25;4.25;;;;;;;19.12;54.67;100913.31;5031496;28;20030;-68
2022/06/18 02:44:29;;;;;;;6.38;3.60;;;;;;;19.19;54.31;100919.22;4999127;28;20033;-68
2022/06/18 02:46:56;;;;;;;5.72;3.78;;;;;;;19.26;54.16;100909.97;5033610;28;20534;-68
2022/06/18 02:49:22;;;;;;;4.70;3.70;;;;;;;19.32;53.91;100914.16;5033603;28;20038;-68
2022/06/18 02:51:47;;;;;;;3.83;3.13;;;;;;;19.39;53.69;100910.25;4992445;28;1163977;-68
2022/06/18 02:54:19;;;;;;;6.53;4.13;;;;;;;19.38;53.75;100925.34;5034125;28;20040;-68
2022/06/18 02:56:46;;;;;;;5.85;3.65;;;;;;;19.40;53.76;100909.28;5016131;28;20033;-68
2022/06/18 02:59:11;;;;;;;4.43;3.55;;;;;;;19.45;53.54;100904.59;5033936;28;20043;-67
2022/06/18 03:01:37;;;;;;;5.78;3.35;;;;;;;19.45;53.24;100908.13;5033919;28;20033;-67
2022/06/18 03:04:03;;;;;;;3.25;2.78;;;;;;;19.40;53.06;100904.81;5033934;28;20037;-68
2022/06/18 03:06:30;;;;;;;3.72;2.72;;;;;;;19.43;53.02;100906.47;5016108;28;20039;-68
2022/06/18 03:08:57;;;;;;;3.78;3.13;;;;;;;19.49;52.65;100905.31;5034046;28;20197;-68
2022/06/18 03:14:09;;;;;;;5.22;2.72;;;;;;;19.61;52.34;100897.56;5033424;28;20041;-68
2022/06/18 03:16:36;;;;;;;5.55;2.70;;;;;;;19.58;52.31;100899.50;5033830;28;20112;-67
2022/06/18 03:19:03;;;;;;;3.53;2.35;;;;;;;19.56;52.13;100890.72;5033608;28;20030;-68
2022/06/18 03:21:34;;;;;;;4.22;2.58;;;;;;;19.54;52.17;100892.59;5033372;28;20495;-68
2022/06/18 03:24:00;;;;;;;3.22;2.45;;;;;;;19.51;52.27;100903.41;5030384;28;20053;-67
2022/06/18 03:26:26;;;;;;;2.80;2.22;;;;;;;19.64;52.18;100899.22;5022884;28;20037;-68
2022/06/18 03:28:52;;;;;;;2.88;2.55;;;;;;;19.68;51.99;100903.47;5033088;28;20504;-68
2022/06/18 03:31:18;;;;;;;3.53;2.40;;;;;;;19.67;51.85;100909.75;5033365;28;20041;-68
2022/06/18 03:33:44;;;;;;;2.72;2.22;;;;;;;19.67;52.02;100909.75;5033428;28;20049;-68
2022/06/18 03:36:11;;;;;;;2.92;2.05;;;;;;;19.73;51.96;100909.41;5033366;28;20065;-68
2022/06/18 03:38:37;;;;;;;2.17;1.80;;;;;;;19.76;51.87;100903.94;5032988;28;20404;-67
2022/06/18 03:41:02;;;;;;;4.43;2.15;;;;;;;19.84;51.65;100901.72;5015163;28;20029;-68
2022/06/18 03:43:28;;;;;;;2.50;2.00;;;;;;;19.91;51.61;100897.81;5015393;28;20043;-67
2022/06/18 03:46:12;;;;;;;3.00;2.10;;;;;;;19.93;51.63;100901.25;5033301;28;20083;-68
2022/06/18 03:48:41;;;;;;;2.72;2.03;;;;;;;19.99;51.46;100909.84;5032815;28;20099;-68
2022/06/18 03:51:06;;;;;;;3.30;2.20;;;;;;;19.89;51.56;100905.00;5033201;28;20037;-67
2022/06/18 03:53:32;;;;;;;4.00;1.90;;;;;;;19.97;51.19;100901.09;5033353;28;20556;-67
2022/06/18 03:55:57;;;;;;;3.05;2.03;;;;;;;20.06;51.03;100904.13;5033073;28;20037;-68
2022/06/18 03:58:23;;;;;;;2.42;2.00;;;;;;;20.05;51.45;100904.22;5032875;28;20030;-67
2022/06/18 04:00:50;;;;;;;3.15;1.90;;;;;;;20.18;51.64;100902.59;5026057;28;20049;-68
2022/06/18 04:03:15;;;;;;;3.50;2.30;;;;;;;20.23;51.62;100902.34;5025517;28;20055;-68
2022/06/18 04:05:41;;;;;;;3.97;2.55;;;;;;;20.21;51.82;100902.44;5032454;28;20041;-68
2022/06/18 04:08:08;;;;;;;4.47;2.42;;;;;;;20.16;52.36;100897.38;5032399;28;20048;-68
2022/06/18 04:10:34;;;;;;;3.78;2.22;;;;;;;19.92;53.18;100896.84;5047377;28;20033;-68
2022/06/18 04:12:59;;;;;;;3.33;2.00;;;;;;;19.93;53.30;100900.38;5033174;28;20029;-68
2022/06/18 04:15:24;;;;;;;3.10;2.35;;;;;;;20.00;53.47;100895.59;5014890;28;20092;-67
2022/06/18 04:17:50;;;;;;;3.00;2.20;;;;;;;20.06;53.59;100895.25;5032722;28;20087;-69
2022/06/18 04:20:22;;;;;;;3.42;2.05;;;;;;;20.11;53.59;100890.56;5032576;28;20042;-67
2022/06/18 04:22:48;;;;;;;3.83;1.95;;;;;;;20.16;53.49;100877.84;4998685;28;20061;-68
2022/06/18 04:25:13;;;;;;;3.00;1.90;;;;;;;20.22;53.41;100882.81;5033023;28;20076;-68
2022/06/18 04:27:41;;;;;;;3.03;2.03;;;;;;;20.33;53.28;100877.78;5030010;28;20447;-68
2022/06/18 04:30:07;;;;;;;4.25;2.20;;;;;;;20.40;53.31;100879.16;5042791;28;20041;-68
2022/06/18 04:32:35;;;;;;;2.22;1.65;;;;;;;20.37;53.27;100881.13;5014319;28;20042;-66
2022/06/18 04:35:02;;;;;;;2.50;1.75;;;;;;;20.41;53.01;100880.88;5033078;28;20041;-68
2022/06/18 04:37:28;;;;;;;2.72;2.05;;;;;;;20.46;53.38;100877.09;5031776;28;20048;-68
2022/06/18 04:39:56;;;;;;;1.95;1.70;;;;;;;20.48;53.18;100864.53;5032622;28;20038;-68
2022/06/18 04:42:22;;;;;;;2.95;1.40;;;;;;;20.52;53.10;100861.66;5014746;28;20037;-68
2022/06/18 04:44:48;;;;;;;2.22;1.85;;;;;;;20.55;52.92;100860.63;5014207;28;20384;-68
2022/06/18 04:47:13;;;;;;;2.35;1.70;;;;;;;20.64;52.52;100860.09;5032286;28;20025;-68
2022/06/18 04:49:39;;;;;;;2.55;1.83;;;;;;;20.68;52.50;100842.97;5031853;28;20485;-68
2022/06/18 04:52:04;;;;;;;2.28;1.67;;;;;;;20.74;52.65;100839.06;5014826;28;20050;-69
2022/06/18 04:54:30;;;;;;;3.00;1.90;;;;;;;20.75;52.42;100846.16;5032465;28;20052;-69
2022/06/18 04:56:55;;;;;;;2.08;1.50;;;;;;;20.78;52.47;100840.63;5032217;28;20501;-69
2022/06/18 04:59:21;;;;;;;3.15;1.60;;;;;;;20.85;52.20;100847.34;5032129;28;20069;-67
2022/06/18 05:01:59;;;;;;;4.75;1.42;;;;;;;20.88;52.30;100852.53;5025079;28;20060;-69
2022/06/18 05:04:24;;;;;;;1.67;1.30;;;;;;;20.91;52.00;100853.22;5033432;28;20037;-70
2022/06/18 05:06:53;;;;;;;3.13;1.52;;;;;;;20.98;52.06;100848.34;5033121;28;20037;-70
2022/06/18 05:09:19;;;;;;;2.50;1.77;;;;;;;21.08;51.98;100843.34;5048300;28;20103;-70
2022/06/18 05:11:44;;;;;;;2.20;1.70;;;;;;;21.21;51.63;100836.34;5033121;28;20465;-69
2022/06/18 05:14:10;;;;;;;2.97;1.60;;;;;;;21.33;51.62;100841.00;5015318;28;20125;-69
2022/06/18 05:16:35;;;;;;;2.42;1.70;;;;;;;21.54;51.61;100828.16;5032919;28;20033;-69
2022/06/18 05:19:04;;;;;;;4.13;1.27;;;;;;;21.70;51.12;100833.44;5048363;28;20037;-69
2022/06/18 05:21:29;;;;;;;2.35;1.38;;;;;;;21.88;50.69;100826.97;5013727;28;20048;-70
2022/06/18 05:23:55;;;;;;;3.20;1.45;;;;;;;22.06;50.37;100834.78;5010655;28;20125;-69
2022/06/18 05:26:20;;;;;;;2.35;1.60;;;;;;;22.18;50.13;100822.50;5015316;28;20029;-69
2022/06/18 05:28:45;;;;;;;1.88;1.48;;;;;;;22.28;49.68;100827.19;5032949;28;20045;-69
2022/06/18 05:31:12;;;;;;;2.00;1.30;;;;;;;22.36;49.61;100830.22;5032534;28;20451;-69
2022/06/18 05:33:37;;;;;;;1.92;1.42;;;;;;;22.40;49.44;100824.69;5033351;28;20434;-69
2022/06/18 05:36:05;;;;;;;2.42;1.30;;;;;;;22.51;49.07;100827.53;5018836;28;20069;-69
2022/06/18 05:38:30;;;;;;;2.35;1.40;;;;;;;22.61;48.89;100824.16;5017807;28;20038;-69
2022/06/18 05:40:56;;;;;;;2.13;1.20;;;;;;;22.73;48.50;100818.97;5035649;28;20119;-69
2022/06/18 05:43:21;;;;;;;4.30;1.40;;;;;;;22.87;48.22;100811.75;5035542;28;20026;-70
2022/06/18 05:45:47;;;;;;;3.38;1.40;;;;;;;23.04;47.73;100820.50;5035064;28;20091;-69
2022/06/18 05:48:13;;;;;;;1.65;1.40;;;;;;;23.11;47.53;100820.00;5031359;28;20091;-71
2022/06/18 05:50:39;;;;;;;3.65;1.30;;;;;;;23.11;47.41;100809.28;5035031;28;20117;-71
2022/06/18 05:53:05;;;;;;;6.35;1.70;;;;;;;23.15;47.46;100801.91;5036174;28;20050;-71
2022/06/18 05:55:30;;;;;;;1.92;1.65;;;;;;;23.29;47.41;100800.94;5016926;28;20469;-71
2022/06/18 05:58:08;;;;;;;3.08;1.40;;;;;;;23.40;47.21;100806.44;5015622;28;20029;-69
2022/06/18 06:00:34;;;;;;;4.18;1.40;;;;;;;23.56;46.77;100806.25;5033738;28;20042;-70
2022/06/18 06:03:00;;;;;;;2.67;1.60;;;;;;;23.72;46.52;100800.69;5033871;28;20045;-67
2022/06/18 06:05:26;;;;;;;2.20;1.50;;;;;;;23.95;46.15;100791.91;5031318;28;20030;-69
2022/06/18 06:07:52;;;;;;;3.05;1.60;;;;;;;24.06;46.25;100804.56;5032147;28;20083;-70
2022/06/18 06:13:01;;;;;;;1.73;1.33;;;;;;;24.28;45.35;100793.97;5035265;28;20043;-69
2022/06/18 06:15:26;;;;;;;3.70;1.38;;;;;;;24.42;45.16;100787.66;5035583;28;20033;-69
2022/06/18 06:17:52;;;;;;;3.15;1.60;;;;;;;24.63;44.45;100793.25;5017806;28;20129;-71
2022/06/18 06:20:25;;;;;;;2.67;1.33;;;;;;;24.58;44.46;100782.84;5017718;28;20080;-69
2022/06/18 06:22:50;;;;;;;2.47;1.50;;;;;;;24.71;44.42;100779.25;5017747;28;20037;-71
2022/06/18 06:25:16;;;;;;;3.55;1.67;;;;;;;24.75;44.19;100776.22;5035321;28;20041;-71
2022/06/18 06:27:41;;;;;;;1.90;1.63;;;;;;;24.83;44.04;100771.13;5035331;28;20063;-71
2022/06/18 06:30:11;;;;;;;4.50;1.73;;;;;;;24.92;43.74;100763.34;5035556;28;20029;-71
2022/06/18 06:32:37;;;;;;;1.95;1.52;;;;;;;25.03;43.47;100766.09;5035803;28;20040;-72
2022/06/18 06:35:02;;;;;;;3.42;1.65;;;;;;;25.12;43.40;100765.41;5035573;28;20033;-72
2022/06/18 06:37:28;;;;;;;1.98;1.45;;;;;;;25.22;42.79;100762.88;5017825;28;20037;-72
2022/06/18 06:39:53;;;;;;;3.15;1.88;;;;;;;25.34;42.75;100755.72;5017494;28;20032;-72
2022/06/18 06:42:18;;;;;;;2.33;1.52;;;;;;;25.46;42.42;100755.59;5017792;28;20542;-72
2022/06/18 06:44:44;;;;;;;2.28;1.40;;;;;;;25.53;42.35;100746.09;5034604;28;20029;-72
2022/06/18 06:47:10;;;;;;;1.75;1.30;;;;;;;25.57;42.10;100741.28;5034676;28;20026;-72
2022/06/18 06:49:35;;;;;;;2.03;1.50;;;;;;;25.78;41.91;100739.63;5035578;28;20055;-72
2022/06/18 06:52:01;;;;;;;2.53;1.40;;;;;;;25.96;41.29;100731.06;5035139;28;20041;-72
2022/06/18 06:54:26;;;;;;;2.17;1.63;;;;;;;26.10;41.28;100729.94;5035463;28;20115;-71
2022/06/18 06:59:38;;;;;;;1.85;1.38;;;;;;;26.27;40.86;100724.03;5035168;28;20419;-72
2022/06/18 07:02:14;;;;;;;1.92;1.50;;;;;;;26.40;40.56;100724.72;5035265;28;20041;-72
2022/06/18 07:04:39;;;;;;;2.20;1.48;;;;;;;26.52;40.44;100728.28;5018259;28;20112;-72
2022/06/18 07:07:05;;;;;;;1.77;1.60;;;;;;;26.60;40.48;100723.09;5034832;28;20533;-71
2022/06/18 07:09:30;;;;;;;2.00;1.60;;;;;;;26.75;40.18;100724.53;5017207;28;20034;-71
2022/06/18 07:11:55;;;;;;;1.85;1.42;;;;;;;26.89;39.98;100730.56;5017135;28;20041;-71
2022/06/18 07:14:21;;;;;;;2.83;1.90;;;;;;;26.89;39.72;100722.50;5034777;28;20025;-72
2022/06/18 07:16:50;;;;;;;3.38;1.50;;;;;;;27.02;39.60;100713.25;5034722;28;20480;-72
2022/06/18 07:19:17;;;;;;;3.28;1.45;;;;;;;27.18;39.24;100717.34;5034664;28;20036;-72
2022/06/18 07:21:42;;;;;;;1.90;1.35;;;;;;;27.38;39.02;100707.53;5034459;28;20060;-71
2022/06/18 07:24:08;;;;;;;2.20;1.55;;;;;;;27.50;38.62;100698.38;5034631;28;20112;-70
2022/06/18 07:26:33;;;;;;;3.65;1.30;;;;;;;27.47;38.37;100699.47;5000441;28;20393;-70
2022/06/18 07:28:59;;;;;;;2.28;1.27;;;;;;;27.56;38.32;100696.97;5034466;28;20056;-70
2022/06/18 07:31:33;;;;;;;2.95;1.40;;;;;;;27.73;38.03;100693.66;5034387;28;20022;-70
2022/06/18 07:33:59;;;;;;;3.22;1.58;;;;;;;27.64;38.46;100683.66;5016648;28;20041;-63
2022/06/18 07:36:26;;;;;;;2.13;1.60;;;;;;;27.45;38.54;100682.59;5016491;28;20083;-65
2022/06/18 07:38:52;;;;;;;2.22;1.60;;;;;;;27.16;38.54;100662.69;5000384;28;20440;-65
2022/06/18 07:41:20;;;;;;;4.15;1.50;;;;;;;26.98;38.57;100662.41;5016868;28;20087;-65
2022/06/18 07:43:49;;;;;;;2.30;1.52;;;;;;;26.99;38.79;100653.31;5034094;28;20036;-65
2022/06/18 07:46:15;;;;;;;2.13;1.40;;;;;;;26.93;39.08;100653.84;5034137;28;20037;-65
2022/06/18 07:48:41;;;;;;;4.55;1.65;;;;;;;27.02;39.04;100658.47;5016289;28;20076;-65
2022/06/18 07:51:07;;;;;;;2.45;1.40;;;;;;;27.01;38.55;100659.47;5016201;28;20036;-65
2022/06/18 07:53:34;;;;;;;2.00;1.23;;;;;;;27.08;38.90;100649.81;5016090;28;20179;-66
2022/06/18 07:56:00;;;;;;;3.53;1.30;;;;;;;27.08;38.48;100644.44;5016019;28;20040;-65
2022/06/18 07:58:29;;;;;;;2.53;1.20;;;;;;;27.24;38.57;100650.22;5016335;28;20060;-65
2022/06/18 08:00:56;;;;;;;2.58;1.40;;;;;;;27.22;38.56;100648.69;5016220;28;20059;-65
2022/06/18 08:03:22;;;;;;;2.55;1.50;;;;;;;27.34;38.28;100644.91;5033750;28;20485;-65
2022/06/18 08:05:48;;;;;;;3.60;1.55;;;;;;;27.25;38.46;100638.47;5015922;28;20132;-65
2022/06/18 08:08:15;;;;;;;1.73;1.23;;;;;;;27.35;38.19;100637.66;5000079;28;20113;-65
2022/06/18 08:10:42;;;;;;;1.90;1.20;;;;;;;27.37;38.25;100620.34;5015999;28;20021;-65
2022/06/18 08:13:08;;;;;;;1.77;1.50;;;;;;;27.37;38.05;100625.75;4999645;28;20124;-65
2022/06/18 08:15:34;;;;;;;2.72;1.30;;;;;;;27.44;38.10;100632.28;5015863;28;20057;-66
2022/06/18 08:18:00;;;;;;;2.85;1.27;;;;;;;27.44;38.12;100620.66;5015777;28;20496;-65
2022/06/18 08:20:26;;;;;;;6.13;1.60;;;;;;;27.61;37.89;100625.41;5033587;28;20038;-68
2022/06/18 08:22:55;;;;;;;2.72;1.48;;;;;;;27.63;38.09;100615.31;5015965;28;20076;-66
2022/06/18 08:25:23;;;;;;;2.33;1.35;;;;;;;27.62;38.09;100610.06;5015754;28;20033;-66
2022/06/18 08:27:50;;;;;;;2.47;1.40;;;;;;;27.49;37.91;100607.63;5015945;28;20028;-66
2022/06/18 08:30:16;;;;;;;2.83;1.40;;;;;;;27.44;38.04;100602.59;5015670;28;20385;-65
2022/06/18 08:32:43;;;;;;;2.58;1.60;;;;;;;27.37;38.22;100603.28;4999202;28;20029;-65
2022/06/18 08:35:09;;;;;;;2.92;1.50;;;;;;;27.47;38.32;100590.69;4999418;28;20041;-65
2022/06/18 08:37:35;;;;;;;1.67;1.23;;;;;;;27.63;38.18;100595.56;5033465;28;20045;-66
2022/06/18 08:40:34;;;;;;;3.83;1.33;;;;;;;27.78;37.39;100590.69;5015618;28;20091;-65
2022/06/18 08:43:07;;;;;;;1.95;1.38;;;;;;;27.75;37.41;100591.81;5033152;28;20461;-65
2022/06/18 08:45:39;;;;;;;2.20;1.40;;;;;;;27.78;37.56;100593.38;5016148;28;20026;-65
2022/06/18 08:48:31;;;;;;;2.03;1.30;;;;;;;27.69;37.02;100585.09;5015602;28;20036;-66
2022/06/18 08:50:57;;;;;;;2.67;1.52;;;;;;;27.66;37.46;100579.97;5015717;28;20053;-65
2022/06/18 08:53:48;;;;;;;2.08;1.30;;;;;;;27.68;37.15;100577.97;5033039;28;20077;-65
2022/06/18 08:56:52;;;;;;;4.38;1.50;;;;;;;27.89;37.17;100577.06;5033363;28;20030;-66
2022/06/18 08:59:47;;;;;;;4.03;1.27;;;;;;;28.01;36.54;100565.13;5031854;28;20045;-65
2022/06/18 09:02:25;;;;;;;2.97;1.10;;;;;;;28.18;36.86;100569.81;5015241;28;20049;-65
2022/06/18 09:05:00;;;;;;;2.67;1.40;;;;;;;28.16;36.77;100570.94;5015195;28;20086;-66
2022/06/18 09:07:35;;;;;;;2.90;1.30;;;;;;;28.29;36.15;100571.53;5033316;28;20033;-65
2022/06/18 09:10:19;;;;;;;2.38;1.25;;;;;;;28.24;36.71;100558.44;5002022;28;20462;-66
2022/06/18 09:13:06;;;;;;;1.63;1.25;;;;;;;28.40;36.61;100573.25;5019882;28;20125;-65
2022/06/18 09:15:37;;;;;;;1.55;1.30;;;;;;;28.52;36.13;100561.28;5036450;28;20367;-66
2022/06/18 09:18:24;;;;;;;2.85;1.33;;;;;;;28.65;35.18;100566.41;5019189;28;20025;-65
2022/06/18 09:21:00;;;;;;;2.33;1.30;;;;;;;29.03;34.38;100565.47;5019230;28;20377;-66
2022/06/18 09:23:29;;;;;;;2.20;1.42;;;;;;;28.99;34.77;100553.22;5019201;28;20036;-66
2022/06/18 09:25:57;;;;;;;2.90;1.38;;;;;;;29.05;34.06;100555.38;5019211;28;20612;-65
2022/06/18 09:28:26;;;;;;;2.88;1.50;;;;;;;28.94;34.67;100559.06;5036754;28;20084;-66
2022/06/18 09:31:29;;;;;;;3.65;1.40;;;;;;;28.95;34.11;100540.97;5018846;28;20037;-65
2022/06/18 09:33:59;;;;;;;3.67;1.37;;;;;;;29.11;34.22;100541.22;4985173;28;20111;-65
2022/06/18 09:36:31;;;;;;;2.13;1.20;;;;;;;29.13;33.84;100536.53;5018907;28;20495;-66
2022/06/18 09:39:25;;;;;;;3.42;1.40;;;;;;;29.14;32.34;100540.94;5018920;28;20564;-66
2022/06/18 09:42:00;;;;;;;3.88;1.40;;;;;;;29.22;33.78;100537.47;5015037;28;20041;-65
2022/06/18 09:45:00;;;;;;;4.85;1.50;;;;;;;29.13;32.47;100525.72;5018861;28;20484;-66
2022/06/18 09:47:47;;;;;;;3.35;1.38;;;;;;;29.39;32.35;100514.19;5031965;28;20042;-65
2022/06/18 09:50:16;;;;;;;2.08;1.20;;;;;;;29.47;33.55;100508.84;5018603;28;20072;-66
2022/06/18 09:52:48;;;;;;;1.85;1.20;;;;;;;29.56;33.17;100498.97;5018135;28;20137;-66
2022/06/18 09:55:22;;;;;;;1.60;1.23;;;;;;;29.61;32.83;100508.38;5036403;28;20068;-65
2022/06/18 09:57:52;;;;;;;2.50;1.30;;;;;;;29.52;32.84;100493.00;5036350;28;20045;-65
2022/06/18 10:00:21;;;;;;;2.08;1.17;;;;;;;29.54;33.34;100493.72;5018956;28;20084;-66
2022/06/18 10:02:54;;;;;;;1.67;1.02;;;;;;;29.61;32.67;100489.44;5018383;28;20507;-66
2022/06/18 10:08:17;;;;;;;4.50;1.33;;;;;;;29.80;32.91;100479.44;5036384;28;20168;-65
2022/06/18 10:11:07;;;;;;;2.90;1.48;;;;;;;29.97;31.14;100480.44;5018175;28;20045;-66
2022/06/18 10:13:38;;;;;;;1.75;1.35;;;;;;;30.25;31.69;100481.22;5035998;28;20377;-65
2022/06/18 10:16:08;;;;;;;5.18;1.30;;;;;;;30.29;31.88;100471.75;5018113;28;20026;-65
2022/06/18 10:18:59;;;;;;;4.60;1.40;;;;;;;30.26;31.40;100458.53;5017804;28;20041;-65
2022/06/18 10:21:41;;;;;;;2.83;1.25;;;;;;;30.26;30.76;100459.38;5035848;28;20033;-65
2022/06/18 10:24:12;;;;;;;;;;;;;;;29.94;29.65;100452.66;5018629;28;20037;-66
2022/06/18 10:26:41;;;;;;;1.67;1.00;;;;;;;30.01;31.70;100454.75;5035601;28;19913;-65
2022/06/18 10:29:31;;;;;;;2.13;0.90;;;;;;;29.66;29.15;100465.44;5017749;28;20469;-65
2022/06/18 10:32:11;;;;;;;2.90;1.00;;;;;;;29.45;28.67;100449.47;5035589;28;20025;-66
2022/06/18 10:35:27;;;;;;;1.27;1.00;;;;;;;29.39;30.29;100447.38;5035570;28;20025;-66
2022/06/18 10:37:53;;;;;;;1.67;0.90;;;;;;;29.17;30.84;100458.63;4993715;28;20119;-65
2022/06/18 10:40:40;;;;;;;3.08;1.05;;;;;;;29.36;30.63;100449.53;5035191;28;20141;-66
2022/06/18 10:43:18;;;;;;;2.00;0.90;;;;;;;29.30;29.22;100447.44;5017692;28;20393;-66
2022/06/18 10:45:51;;;;;;;2.90;1.10;;;;;;;29.47;30.10;100446.59;5017578;28;20065;-65
2022/06/18 10:48:23;;;;;;;3.30;1.08;;;;;;;29.48;30.36;100444.75;5001254;28;20029;-66
2022/06/18 10:50:52;;;;;;;1.20;0.90;;;;;;;29.60;29.17;100433.56;5035440;28;20034;-66
2022/06/18 10:53:21;;;;;;;1.92;1.00;;;;;;;29.89;29.40;100433.31;5034838;28;20053;-66
2022/06/18 10:56:04;;;;;;;1.38;1.10;;;;;;;30.16;28.79;100439.63;5035057;28;20049;-66
2022/06/18 10:58:30;;;;;;;2.03;0.90;;;;;;;30.15;29.94;100441.50;5034986;28;20037;-66
2022/06/18 11:01:03;;;;;;;3.72;1.20;;;;;;;30.12;29.34;100439.09;5017285;28;20029;-66
2022/06/18 11:03:33;;;;;;;1.00;0.90;;;;;;;30.63;29.25;100440.09;5034974;28;20038;-66
2022/06/18 11:06:04;;;;;;;1.80;0.98;;;;;;;30.98;28.90;100429.28;5017216;28;20465;-66
2022/06/18 11:08:32;;;;;;;1.80;1.05;;;;;;;31.34;29.00;100424.50;5034899;28;20044;-66
2022/06/18 11:11:05;;;;;;;2.83;1.20;;;;;;;31.50;27.68;100418.25;5034695;28;20061;-66
2022/06/18 11:13:40;;;;;;;1.63;1.10;;;;;;;31.57;27.87;100422.84;5017417;28;20029;-66
2022/06/18 11:16:19;;;;;;;3.38;1.30;;;;;;;31.32;27.71;100412.94;5017405;28;20033;-67
2022/06/18 11:18:46;;;;;;;2.92;1.20;;;;;;;31.03;28.80;100421.50;5016834;28;20033;-66
2022/06/18 11:21:19;;;;;;;4.22;1.27;;;;;;;30.70;28.63;100417.78;5034675;28;20120;-67
2022/06/18 11:23:51;;;;;;;3.10;1.17;;;;;;;30.86;28.19;100420.59;5016952;28;20104;-67
2022/06/18 11:26:22;;;;;;;3.63;1.30;;;;;;;30.87;29.13;100416.84;5016842;28;20048;-67
2022/06/18 11:28:51;;;;;;;2.40;1.20;;;;;;;31.11;28.92;100410.66;5034484;28;20129;-67
2022/06/18 11:31:23;;;;;;;3.00;1.42;;;;;;;30.90;28.89;100414.66;5016020;28;20532;-66
2022/06/18 11:33:57;;;;;;;;;;;;;;;30.43;28.43;100408.81;5034764;28;20037;-67
2022/06/18 11:36:36;;;;;;;5.57;1.40;;;;;;;30.23;29.00;100419.03;5034215;28;19916;-67
2022/06/18 11:39:03;;;;;;;1.83;0.95;;;;;;;30.49;29.48;100419.03;5034369;28;20041;-67
2022/06/18 11:41:40;;;;;;;2.72;1.35;;;;;;;30.31;28.77;100415.53;5034209;28;20043;-67
2022/06/18 11:44:21;;;;;;;2.90;1.35;;;;;;;30.37;28.89;100414.91;5034213;28;20025;-67
2022/06/18 11:46:56;;;;;;;2.05;1.00;;;;;;;30.52;29.25;100409.72;5034362;28;20029;-67
2022/06/18 11:49:59;;;;;;;4.40;1.48;;;;;;;30.37;29.32;100404.06;5034475;28;20034;-67
2022/06/18 11:52:46;;;;;;;2.35;1.17;;;;;;;30.45;29.07;100401.38;5018835;28;20487;-67
2022/06/18 11:55:34;;;;;;;3.03;1.23;;;;;;;30.30;28.79;100397.56;5033899;28;20033;-67
2022/06/18 11:58:01;;;;;;;2.22;1.20;;;;;;;30.40;29.30;100391.03;5016275;28;20112;-68
2022/06/18 12:00:40;;;;;;;2.88;1.38;;;;;;;30.49;29.51;100380.25;5034092;28;20121;-67